CDT,Max TemperatureF,Mean TemperatureF,Min TemperatureF,Max Dew PointF,MeanDew PointF,Min DewpointF,Max Humidity, Mean Humidity, Min Humidity, Max Sea Level PressureIn, Mean Sea Level PressureIn, Min Sea Level PressureIn, Max VisibilityMiles, Mean VisibilityMiles, Min VisibilityMiles, Max Wind SpeedMPH, Mean Wind SpeedMPH, Max Gust SpeedMPH,PrecipitationIn, CloudCover, Events, WindDirDegrees
2010-10-1,75,61,47,52,48,44,94,68,33,30.21,30.14,30.08,10,9,2,9,2,,0.00,0,,237
2010-10-2,61,52,44,50,44,36,83,66,38,30.35,30.21,30.04,10,10,7,23,11,30,0.00,3,,3
2010-10-3,60,48,36,39,36,33,94,67,36,30.47,30.39,30.35,10,10,10,9,4,,0.00,0,,33
2010-10-4,65,51,37,43,38,36,100,72,35,30.44,30.38,30.33,10,9,4,6,1,,0.00,0,,139
2010-10-5,70,56,41,46,42,38,89,65,36,30.43,30.36,30.30,10,10,10,9,5,,0.00,0,,168
2010-10-6,79,62,44,53,47,42,95,66,34,30.30,30.22,30.12,10,10,10,15,7,,0.00,0,,212
2010-10-7,77,64,52,52,47,40,92,62,26,30.22,30.16,30.12,10,9,6,9,5,,0.00,0,,356
2010-10-8,85,68,50,59,54,47,94,67,36,30.13,30.08,30.01,10,10,8,10,4,,0.00,0,,185
2010-10-9,82,68,54,56,51,46,92,60,28,30.06,30.01,29.97,10,10,10,15,8,23,0.00,0,,181
2010-10-10,81,67,53,55,50,47,81,58,31,29.97,29.92,29.88,10,10,10,10,6,,0.00,1,,217
2010-10-11,69,63,57,59,57,52,100,87,67,29.91,29.87,29.82,10,10,4,12,4,,0.12,3,Rain-Thunderstorm,18
2010-10-12,74,64,54,59,56,54,100,82,52,30.07,29.92,29.83,10,8,1,13,5,,0.01,4,,345
2010-10-13,68,60,49,54,41,32,79,53,27,30.28,30.21,30.09,10,10,10,18,12,23,0.00,1,,344
2010-10-14,73,56,38,43,38,32,88,55,24,30.27,30.16,29.99,10,10,10,17,5,20,0.00,0,,234
2010-10-15,71,58,44,43,36,31,79,48,23,30.17,30.11,30.02,10,9,2,8,4,,0.00,0,,327
2010-10-16,82,63,44,51,44,37,77,57,31,30.11,30.07,29.99,10,9,5,18,7,23,0.00,0,,193
2010-10-17,77,62,46,55,49,43,94,71,40,30.14,30.05,29.96,10,8,4,8,3,,0.00,1,,69
2010-10-18,70,60,49,55,50,41,96,75,49,30.04,29.97,29.92,10,10,3,15,6,,0.08,4,Rain-Thunderstorm,327
2010-10-19,63,52,40,42,38,33,93,67,32,30.11,30.05,30.00,10,10,10,7,4,,0.00,3,,15
2010-10-20,73,57,41,44,39,35,93,66,26,30.01,29.98,29.93,10,10,9,12,7,,0.00,0,,221
2010-10-21,72,58,44,42,34,25,77,46,19,30.11,30.04,29.96,10,10,10,8,4,,0.00,0,,65
2010-10-22,75,62,50,57,45,34,70,53,43,30.03,29.98,29.90,10,10,6,16,7,24,0.00,2,,153
2010-10-23,76,70,63,63,58,50,83,68,50,29.89,29.84,29.78,10,8,2,28,18,34,0.00,4,Rain-Thunderstorm,187
2010-10-24,71,63,55,56,55,53,92,80,59,29.78,29.72,29.65,10,9,3,21,14,29,0.00,4,,204
2010-10-25,76,64,53,63,57,53,100,81,46,29.62,29.36,29.03,10,9,3,43,12,53,0.04,2,Rain-Thunderstorm,179
2010-10-26,69,60,50,63,43,30,94,60,29,29.62,29.36,29.04,10,9,1,29,20,41,0.32,2,Rain-Thunderstorm,240
2010-10-27,67,56,46,33,29,23,57,38,19,30.14,29.84,29.62,10,10,10,22,14,31,0.00,1,,254
2010-10-28,54,44,35,30,26,19,70,51,25,30.46,30.36,30.16,10,10,10,15,10,20,0.00,1,,302
2010-10-29,64,46,27,30,26,22,88,53,24,30.45,30.31,30.09,10,10,8,13,4,,0.00,0,,191
2010-10-30,71,58,44,38,33,29,62,45,27,30.07,29.95,29.87,10,10,10,17,12,,0.00,0,,223
2010-10-31,59,49,39,42,38,34,86,66,50,30.13,30.05,29.97,10,10,10,15,8,21,0.00,2,,57